createdAt,value
2018-07-24T00:01:45.056Z,7.50
2018-07-24T00:03:47.984Z,7.20
2018-07-24T00:05:50.863Z,6.50
2018-07-24T00:07:53.744Z,6.67
2018-07-24T00:09:56.620Z,7.53
2018-07-24T00:11:59.599Z,7.43
2018-07-24T00:14:02.591Z,6.70
2018-07-24T00:16:05.470Z,7.30
2018-07-24T00:18:08.363Z,6.60
2018-07-24T00:20:11.229Z,6.37
2018-07-24T00:22:14.208Z,6.63
2018-07-24T00:24:17.095Z,7.30
2018-07-24T00:26:20.074Z,6.30
2018-07-24T00:28:23.048Z,7.90
2018-07-24T00:30:26.147Z,6.60
2018-07-24T00:32:29.243Z,7.27
2018-07-24T00:34:32.355Z,6.23
2018-07-24T00:36:35.451Z,6.80
2018-07-24T00:38:38.539Z,6.97
2018-07-24T00:40:41.641Z,6.70
2018-07-24T00:42:44.727Z,6.37
2018-07-24T00:44:47.847Z,7.10
2018-07-24T00:46:50.939Z,7.13
2018-07-24T00:48:54.044Z,7.57
2018-07-24T00:50:57.133Z,6.43
2018-07-24T00:53:00.228Z,7.00
2018-07-24T00:55:03.324Z,5.83
2018-07-24T00:57:06.406Z,7.10
2018-07-24T00:59:10.470Z,5.93
2018-07-24T01:01:13.552Z,6.10
2018-07-24T01:03:16.678Z,6.80
2018-07-24T01:05:19.839Z,6.00
2018-07-24T01:07:22.979Z,6.83
2018-07-24T01:09:26.147Z,6.60
2018-07-24T01:11:29.403Z,7.10
2018-07-24T01:13:32.528Z,6.83
2018-07-24T01:15:35.668Z,7.03
2018-07-24T01:17:38.807Z,7.37
2018-07-24T01:19:41.973Z,7.93
2018-07-24T01:21:45.195Z,8.77
2018-07-24T01:23:48.329Z,7.10
2018-07-24T01:25:51.463Z,7.67
2018-07-24T01:27:54.583Z,6.93
2018-07-24T01:29:57.722Z,7.57
2018-07-24T01:32:00.873Z,6.83
2018-07-24T01:34:04.031Z,7.30
2018-07-24T01:36:07.320Z,6.73
2018-07-24T01:38:10.495Z,6.97
2018-07-24T01:40:13.639Z,6.50
2018-07-24T01:42:17.763Z,7.20
2018-07-24T01:44:20.884Z,6.60
2018-07-24T01:46:24.023Z,7.80
2018-07-24T01:48:27.156Z,8.40
2018-07-24T01:50:30.311Z,7.37
2018-07-24T01:52:33.447Z,7.87
2018-07-24T01:54:36.568Z,7.83
2018-07-24T01:56:39.701Z,8.17
2018-07-24T01:58:42.831Z,9.10
2018-07-24T02:00:45.988Z,9.47
2018-07-24T02:02:49.118Z,8.37
2018-07-24T02:04:52.012Z,8.53
2018-07-24T02:06:55.168Z,8.07
2018-07-24T02:08:58.079Z,9.10
2018-07-24T02:11:01.484Z,8.57
2018-07-24T02:13:04.459Z,8.50
2018-07-24T02:15:07.767Z,9.10
2018-07-24T02:17:10.926Z,7.90
2018-07-24T02:19:14.055Z,8.50
2018-07-24T02:21:17.023Z,8.60
2018-07-24T02:23:19.991Z,9.27
2018-07-24T02:25:23.111Z,8.30
2018-07-24T02:27:26.272Z,9.23
2018-07-24T02:29:29.399Z,9.10
2018-07-24T02:31:32.554Z,8.17
2018-07-24T02:33:35.689Z,8.60
2018-07-24T02:35:38.891Z,7.57
2018-07-24T02:37:42.160Z,9.20
2018-07-24T02:39:45.396Z,8.30
2018-07-24T02:41:48.536Z,8.70
2018-07-24T02:43:51.674Z,9.60
2018-07-24T02:45:54.828Z,10.30
2018-07-24T02:47:57.973Z,9.00
2018-07-24T02:50:01.097Z,9.10
2018-07-24T02:52:04.277Z,9.70
2018-07-24T02:54:07.409Z,9.60
2018-07-24T02:56:10.534Z,9.03
2018-07-24T02:58:13.693Z,9.23
2018-07-24T03:00:16.823Z,9.57
2018-07-24T03:02:19.976Z,8.67
2018-07-24T03:04:23.141Z,9.80
2018-07-24T03:06:26.027Z,9.40
2018-07-24T03:08:29.167Z,9.63
2018-07-24T03:10:32.351Z,9.97
2018-07-24T03:12:35.672Z,8.97
2018-07-24T03:14:38.820Z,10.80
2018-07-24T03:16:41.976Z,10.40
2018-07-24T03:18:45.130Z,10.27
2018-07-24T03:20:48.352Z,10.53
2018-07-24T03:22:51.481Z,11.60
2018-07-24T03:24:54.744Z,10.80
2018-07-24T03:26:57.963Z,12.50
2018-07-24T03:29:01.112Z,11.80
2018-07-24T03:31:04.244Z,12.27
2018-07-24T03:33:07.372Z,12.33
2018-07-24T03:35:10.521Z,10.57
2018-07-24T03:37:13.667Z,12.20
2018-07-24T03:39:16.832Z,12.10
2018-07-24T03:41:19.972Z,11.40
2018-07-24T03:43:23.119Z,11.20
2018-07-24T03:45:26.307Z,13.17
2018-07-24T03:47:29.475Z,13.30
2018-07-24T03:49:32.647Z,13.30
2018-07-24T03:51:35.812Z,14.20
2018-07-24T03:53:38.964Z,13.60
2018-07-24T03:55:42.143Z,14.23
2018-07-24T03:57:45.586Z,12.80
2018-07-24T03:59:48.715Z,13.37
2018-07-24T04:01:51.870Z,13.50
2018-07-24T04:03:55.072Z,13.30
2018-07-24T04:05:58.212Z,12.53
2018-07-24T04:08:01.348Z,13.83
2018-07-24T04:10:04.511Z,12.63
2018-07-24T04:12:07.661Z,13.77
2018-07-24T04:14:10.962Z,14.00
2018-07-24T04:16:14.112Z,13.93
2018-07-24T04:18:17.331Z,13.40
2018-07-24T04:20:20.488Z,14.80
2018-07-24T04:22:23.656Z,13.00
2018-07-24T04:24:26.795Z,13.30
2018-07-24T04:26:29.940Z,13.87
2018-07-24T04:28:33.083Z,14.60
2018-07-24T04:30:36.232Z,14.60
2018-07-24T04:32:39.403Z,13.87
2018-07-24T04:34:42.637Z,15.10
2018-07-24T04:36:45.788Z,13.27
2018-07-24T04:38:48.924Z,14.30
2018-07-24T04:40:52.055Z,14.70
2018-07-24T04:42:55.231Z,15.70
2018-07-24T04:44:58.378Z,14.33
2018-07-24T04:47:01.524Z,15.30
2018-07-24T04:49:04.909Z,14.07
2018-07-24T04:51:08.539Z,16.30
2018-07-24T04:53:11.683Z,16.00
2018-07-24T04:55:14.868Z,16.50
2018-07-24T04:57:18.007Z,15.10
2018-07-24T04:59:20.915Z,15.27
2018-07-24T05:01:23.827Z,14.10
2018-07-24T05:03:26.952Z,14.00
2018-07-24T05:05:30.068Z,12.60
2018-07-24T05:07:33.210Z,12.63
2018-07-24T05:09:36.213Z,11.77
2018-07-24T05:11:39.332Z,11.90
2018-07-24T05:13:42.472Z,9.90
2018-07-24T05:15:45.613Z,10.10
2018-07-24T05:17:48.519Z,9.80
2018-07-24T05:19:51.653Z,9.63
2018-07-24T05:21:54.796Z,10.23
2018-07-24T05:23:57.966Z,9.63
2018-07-24T05:26:01.073Z,9.13
2018-07-24T05:28:04.840Z,9.60
2018-07-24T05:30:07.752Z,9.33
2018-07-24T05:32:11.248Z,10.10
2018-07-24T05:34:14.373Z,9.50
2018-07-24T05:36:17.282Z,9.00
2018-07-24T05:38:20.303Z,8.60
2018-07-24T05:40:23.275Z,8.43
2018-07-24T05:42:26.191Z,8.77
2018-07-24T05:44:29.103Z,8.90
2018-07-24T05:46:32.424Z,7.90
2018-07-24T05:48:35.596Z,7.97
2018-07-24T05:50:38.676Z,8.20
2018-07-24T05:52:41.796Z,7.90
2018-07-24T05:54:44.922Z,8.23
2018-07-24T05:56:48.055Z,8.33
2018-07-24T05:58:51.180Z,8.50
2018-07-24T06:00:54.310Z,7.40
2018-07-24T06:02:57.462Z,7.57
2018-07-24T06:05:00.397Z,7.40
2018-07-24T06:07:03.303Z,7.13
2018-07-24T06:09:06.599Z,7.00
2018-07-24T06:11:09.763Z,7.70
2018-07-24T06:13:12.928Z,7.50
2018-07-24T06:15:16.059Z,7.17
2018-07-24T06:17:19.227Z,6.93
2018-07-24T06:19:22.332Z,6.63
2018-07-24T06:21:25.278Z,6.13
2018-07-24T06:23:28.291Z,6.30
2018-07-24T06:25:31.248Z,5.73
2018-07-24T06:27:34.210Z,6.23
2018-07-24T06:29:37.226Z,6.30
2018-07-24T06:31:40.154Z,5.97
2018-07-24T06:33:43.374Z,6.30
2018-07-24T06:35:46.501Z,5.73
2018-07-24T06:37:49.619Z,6.30
2018-07-24T06:39:52.753Z,6.47
2018-07-24T06:41:55.669Z,5.70
2018-07-24T06:43:58.826Z,6.03
2018-07-24T06:46:01.961Z,5.90
2018-07-24T06:48:05.096Z,6.30
2018-07-24T06:50:08.255Z,6.00
2018-07-24T06:52:11.400Z,5.80
2018-07-24T06:54:14.536Z,6.40
2018-07-24T06:56:17.691Z,5.70
2018-07-24T06:58:20.836Z,6.93
2018-07-24T07:00:24.035Z,6.80
2018-07-24T07:02:27.100Z,7.90
2018-07-24T07:04:29.995Z,7.60
2018-07-24T07:06:33.120Z,9.77
2018-07-24T07:08:36.228Z,9.87
2018-07-24T07:10:39.355Z,10.27
2018-07-24T07:12:42.411Z,10.07
2018-07-24T07:14:45.375Z,10.07
2018-07-24T07:16:48.287Z,10.33
2018-07-24T07:18:51.239Z,9.63
2018-07-24T07:20:54.213Z,9.03
2018-07-24T07:22:57.351Z,9.47
2018-07-24T07:25:00.472Z,9.67
2018-07-24T07:27:03.619Z,7.70
2018-07-24T07:29:06.777Z,8.60
2018-07-24T07:31:09.880Z,8.10
2018-07-24T07:33:12.818Z,7.80
2018-07-24T07:35:15.715Z,8.07
2018-07-24T07:37:18.699Z,8.40
2018-07-24T07:39:21.683Z,7.20
2018-07-24T07:41:24.659Z,8.43
2018-07-24T07:43:27.782Z,7.97
2018-07-24T07:45:30.715Z,7.50
2018-07-24T07:47:33.623Z,5.90
2018-07-24T07:49:36.581Z,7.10
2018-07-24T07:51:39.487Z,5.90
2018-07-24T07:53:42.447Z,5.63
2018-07-24T07:55:45.419Z,5.87
2018-07-24T07:57:48.321Z,5.50
2018-07-24T07:59:51.208Z,5.73
2018-07-24T08:01:54.175Z,5.30
2018-07-24T08:03:57.080Z,5.13
2018-07-24T08:06:00.031Z,6.30
2018-07-24T08:08:02.944Z,5.50
2018-07-24T08:10:06.119Z,5.20
2018-07-24T08:12:09.072Z,5.23
2018-07-24T08:14:11.995Z,5.20
2018-07-24T08:16:14.931Z,5.37
2018-07-24T08:18:17.835Z,5.03
2018-07-24T08:20:20.727Z,4.73
2018-07-24T08:22:23.688Z,4.50
2018-07-24T08:24:26.883Z,4.13
2018-07-24T08:26:29.847Z,4.50
2018-07-24T08:28:32.735Z,4.53
2018-07-24T08:30:35.632Z,4.00
2018-07-24T08:32:38.585Z,3.27
2018-07-24T08:34:41.602Z,4.13
2018-07-24T08:36:44.572Z,4.20
2018-07-24T08:38:47.495Z,4.07
2018-07-24T08:40:50.406Z,4.00
2018-07-24T08:42:53.682Z,3.67
2018-07-24T08:44:56.563Z,3.50
2018-07-24T08:46:59.687Z,2.90
2018-07-24T08:49:02.778Z,4.23
2018-07-24T08:51:05.671Z,4.20
2018-07-24T08:53:08.733Z,4.60
2018-07-24T08:55:11.691Z,4.13
2018-07-24T08:57:14.487Z,5.00
2018-07-24T08:59:17.468Z,3.10
2018-07-24T09:01:20.589Z,3.83
2018-07-24T09:03:23.530Z,4.53
2018-07-24T09:05:26.632Z,3.83
2018-07-24T09:07:29.777Z,3.20
2018-07-24T09:09:32.901Z,3.50
2018-07-24T09:11:36.115Z,3.83
2018-07-24T09:13:39.188Z,4.10
2018-07-24T09:15:42.340Z,3.33
2018-07-24T09:17:45.468Z,3.50
2018-07-24T09:19:48.367Z,4.47
2018-07-24T09:21:51.520Z,3.07
2018-07-24T09:23:54.644Z,3.20
2018-07-24T09:25:57.555Z,3.70
2018-07-24T09:28:00.696Z,3.57
2018-07-24T09:30:03.609Z,3.50
2018-07-24T09:32:06.804Z,3.47
2018-07-24T09:34:09.896Z,3.40
2018-07-24T09:36:13.136Z,3.50
2018-07-24T09:38:16.248Z,3.73
2018-07-24T09:40:19.390Z,2.43
2018-07-24T09:42:23.500Z,3.70
2018-07-24T09:44:26.642Z,3.00
2018-07-24T09:46:29.539Z,3.00
2018-07-24T09:48:32.441Z,3.27
2018-07-24T09:50:35.422Z,3.20
2018-07-24T09:52:38.380Z,2.70
2018-07-24T09:54:41.277Z,3.90
2018-07-24T09:56:44.428Z,3.07
2018-07-24T09:58:47.435Z,3.37
2018-07-24T10:00:55.893Z,3.10
2018-07-24T10:02:58.815Z,3.37
2018-07-24T10:05:01.720Z,3.10
2018-07-24T10:07:04.626Z,3.80
2018-07-24T10:09:08.015Z,3.30
2018-07-24T10:11:11.063Z,2.90
2018-07-24T10:13:14.209Z,3.57
2018-07-24T10:15:17.119Z,3.50
2018-07-24T10:17:20.106Z,3.90
2018-07-24T10:19:23.087Z,3.60
2018-07-24T10:21:25.979Z,3.10
2018-07-24T10:23:28.890Z,2.93
2018-07-24T10:25:31.853Z,3.60
2018-07-24T10:27:34.812Z,3.67
2018-07-24T10:29:37.719Z,3.60
2018-07-24T10:31:40.639Z,3.70
2018-07-24T10:33:43.552Z,3.90
2018-07-24T10:35:46.451Z,3.23
2018-07-24T10:37:49.352Z,3.13
2018-07-24T10:39:52.255Z,2.97
2018-07-24T10:41:55.179Z,3.20
2018-07-24T10:43:58.104Z,3.40
2018-07-24T10:46:01.251Z,3.80
2018-07-24T10:48:04.219Z,2.93
2018-07-24T10:50:07.123Z,3.37
2018-07-24T10:52:10.042Z,3.70
2018-07-24T10:54:12.993Z,3.33
2018-07-24T10:56:15.974Z,3.03
2018-07-24T10:58:18.871Z,2.50
2018-07-24T11:00:21.835Z,2.80
2018-07-24T11:02:24.786Z,2.77
2018-07-24T11:04:27.784Z,3.07
2018-07-24T11:06:30.748Z,3.00
2018-07-24T11:08:33.732Z,3.43
2018-07-24T11:10:36.715Z,3.20
2018-07-24T11:12:39.697Z,2.80
2018-07-24T11:14:42.693Z,2.80
2018-07-24T11:16:45.661Z,2.77
2018-07-24T11:18:48.546Z,3.03
2018-07-24T11:20:51.447Z,2.50
2018-07-24T11:22:54.530Z,3.60
2018-07-24T11:24:57.287Z,2.80
2018-07-24T11:27:00.272Z,2.77
2018-07-24T11:29:03.168Z,2.83
2018-07-24T11:31:06.073Z,3.27
2018-07-24T11:33:09.084Z,2.70
2018-07-24T11:35:12.215Z,2.80
2018-07-24T11:37:15.108Z,2.30
2018-07-24T11:39:18.062Z,3.23
2018-07-24T11:41:20.983Z,2.97
2018-07-24T11:43:23.919Z,2.93
2018-07-24T11:45:26.904Z,3.43
2018-07-24T11:47:29.872Z,3.03
2018-07-24T11:49:32.864Z,3.40
2018-07-24T11:51:35.884Z,3.07
2018-07-24T11:53:38.819Z,3.00
2018-07-24T11:55:41.726Z,3.03
2018-07-24T11:57:44.660Z,2.80
2018-07-24T11:59:47.567Z,3.40
2018-07-24T12:01:50.560Z,3.70
2018-07-24T12:03:53.455Z,3.33
2018-07-24T12:05:56.436Z,3.50
2018-07-24T12:07:59.360Z,2.77
2018-07-24T12:10:02.231Z,3.10
2018-07-24T12:12:05.274Z,3.07
2018-07-24T12:14:08.241Z,2.90
2018-07-24T12:16:11.230Z,3.07
2018-07-24T12:18:14.347Z,2.60
2018-07-24T12:20:17.460Z,3.17
2018-07-24T12:22:21.424Z,2.80
2018-07-24T12:24:24.532Z,3.60
2018-07-24T12:26:27.660Z,3.40
2018-07-24T12:28:30.783Z,3.17
2018-07-24T12:30:33.898Z,3.30
2018-07-24T12:32:37.076Z,3.03
2018-07-24T12:34:40.192Z,3.30
2018-07-24T12:36:43.338Z,4.10
2018-07-24T12:38:46.230Z,3.40
2018-07-24T12:40:49.359Z,3.10
2018-07-24T12:42:52.523Z,3.00
2018-07-24T12:44:55.836Z,3.10
2018-07-24T12:46:58.975Z,3.27
2018-07-24T12:49:02.123Z,2.23
2018-07-24T12:51:05.251Z,2.70
2018-07-24T12:53:08.376Z,2.63
2018-07-24T12:55:11.532Z,3.07
2018-07-24T12:57:14.653Z,2.87
2018-07-24T12:59:17.776Z,2.93
2018-07-24T13:01:20.720Z,2.87
2018-07-24T13:03:24.437Z,3.23
2018-07-24T13:05:27.553Z,2.87
2018-07-24T13:07:30.774Z,3.13
2018-07-24T13:09:33.856Z,3.00
2018-07-24T13:11:37.024Z,3.50
2018-07-24T13:13:40.168Z,2.80
2018-07-24T13:15:43.279Z,2.73
2018-07-24T13:17:46.441Z,3.33
2018-07-24T13:19:49.572Z,2.53
2018-07-24T13:21:52.727Z,3.13
2018-07-24T13:23:55.667Z,3.23
2018-07-24T13:25:58.788Z,2.80
2018-07-24T13:28:01.927Z,3.00
2018-07-24T13:30:05.084Z,3.23
2018-07-24T13:32:08.285Z,3.33
2018-07-24T13:34:11.356Z,2.83
2018-07-24T13:36:14.494Z,3.60
2018-07-24T13:38:17.631Z,2.80
2018-07-24T13:40:21.060Z,2.60
2018-07-24T13:42:24.187Z,2.83
2018-07-24T13:44:27.114Z,3.17
2018-07-24T13:46:30.232Z,3.87
2018-07-24T13:48:33.488Z,3.17
2018-07-24T13:50:36.625Z,2.83
2018-07-24T13:52:39.757Z,2.90
2018-07-24T13:54:42.901Z,2.60
2018-07-24T13:56:45.847Z,2.70
2018-07-24T13:58:49.020Z,2.93
2018-07-24T14:00:51.890Z,2.50
2018-07-24T14:02:55.043Z,3.40
2018-07-24T14:04:57.983Z,2.50
2018-07-24T14:07:01.105Z,3.13
2018-07-24T14:09:07.080Z,2.97
2018-07-24T14:11:10.203Z,2.57
2018-07-24T14:13:13.316Z,3.47
2018-07-24T14:15:16.441Z,3.10
2018-07-24T14:17:19.560Z,2.97
2018-07-24T14:19:22.684Z,2.83
2018-07-24T14:21:25.623Z,2.53
2018-07-24T14:23:28.748Z,2.20
2018-07-24T14:25:31.699Z,3.00
2018-07-24T14:27:34.827Z,2.93
2018-07-24T14:29:37.967Z,3.03
2018-07-24T14:31:41.093Z,2.80
2018-07-24T14:33:44.207Z,2.73
2018-07-24T14:35:47.332Z,3.00
2018-07-24T14:37:50.592Z,3.00
2018-07-24T14:39:53.710Z,2.10
2018-07-24T14:41:56.836Z,3.00
2018-07-24T14:43:59.986Z,2.50
2018-07-24T14:46:03.220Z,2.60
2018-07-24T14:48:06.327Z,3.03
2018-07-24T14:50:09.532Z,2.60
2018-07-24T14:52:12.648Z,2.40
2018-07-24T14:54:15.612Z,2.50
2018-07-24T14:56:18.717Z,2.50
2018-07-24T14:58:21.658Z,2.87
2018-07-24T15:00:24.784Z,2.93
2018-07-24T15:02:27.672Z,2.77
2018-07-24T15:04:30.803Z,2.53
2018-07-24T15:06:34.015Z,2.40
2018-07-24T15:08:37.084Z,2.33
2018-07-24T15:10:41.037Z,2.90
2018-07-24T15:12:44.147Z,2.63
2018-07-24T15:14:47.283Z,3.00
2018-07-24T15:16:50.447Z,2.33
2018-07-24T15:18:53.580Z,2.60
2018-07-24T15:20:56.735Z,3.00
2018-07-24T15:22:59.888Z,2.30
2018-07-24T15:25:03.044Z,2.00
2018-07-24T15:27:06.175Z,3.00
2018-07-24T15:29:09.452Z,2.50
2018-07-24T15:31:12.624Z,2.53
2018-07-24T15:33:15.764Z,2.33
2018-07-24T15:35:18.916Z,3.53
2018-07-24T15:37:22.059Z,2.67
2018-07-24T15:39:25.184Z,2.53
2018-07-24T15:41:28.562Z,2.63
2018-07-24T15:43:31.663Z,2.80
2018-07-24T15:45:34.816Z,2.27
2018-07-24T15:47:37.960Z,2.63
2018-07-24T15:49:41.104Z,3.40
2018-07-24T15:51:44.263Z,2.90
2018-07-24T15:53:47.497Z,3.30
2018-07-24T15:55:50.668Z,2.33
2018-07-24T15:57:53.862Z,3.23
2018-07-24T15:59:57.043Z,2.40
2018-07-24T16:02:00.329Z,2.53
2018-07-24T16:04:09.863Z,3.17
2018-07-24T16:06:13.163Z,2.63
2018-07-24T16:08:16.524Z,2.10
2018-07-24T16:10:19.644Z,2.43
2018-07-24T16:12:22.783Z,2.30
2018-07-24T16:14:25.723Z,1.80
2018-07-24T16:16:28.614Z,2.23
2018-07-24T16:18:31.539Z,2.40
2018-07-24T16:20:34.459Z,2.07
2018-07-24T16:22:37.455Z,2.10
2018-07-24T16:24:40.424Z,2.80
2018-07-24T16:26:43.469Z,2.60
2018-07-24T16:28:46.289Z,2.10
2018-07-24T16:30:49.175Z,2.50
2018-07-24T16:32:53.106Z,2.10
2018-07-24T16:34:56.031Z,2.60
2018-07-24T16:36:59.175Z,2.90
2018-07-24T16:39:02.345Z,2.60
2018-07-24T16:41:05.472Z,2.13
2018-07-24T16:43:08.619Z,2.37
2018-07-24T16:45:11.760Z,2.70
2018-07-24T16:47:14.903Z,1.90
2018-07-24T16:49:18.075Z,2.80
2018-07-24T16:51:21.207Z,2.67
2018-07-24T16:53:24.343Z,2.90
2018-07-24T16:55:27.468Z,2.77
2018-07-24T16:57:30.611Z,2.60
2018-07-24T16:59:33.784Z,2.97
2018-07-24T17:01:36.903Z,2.63
2018-07-24T17:03:40.024Z,2.73
2018-07-24T17:05:43.501Z,3.03
2018-07-24T17:07:46.619Z,2.40
2018-07-24T17:09:49.739Z,2.00
2018-07-24T17:11:52.899Z,2.47
2018-07-24T17:13:56.051Z,2.33
2018-07-24T17:15:59.155Z,2.70
2018-07-24T17:18:02.459Z,2.33
2018-07-24T17:20:05.608Z,2.07
2018-07-24T17:22:08.746Z,2.40
2018-07-24T17:24:11.869Z,2.43
2018-07-24T17:26:15.070Z,2.43
2018-07-24T17:28:18.101Z,2.60
2018-07-24T17:30:21.237Z,2.23
2018-07-24T17:32:24.420Z,2.70
2018-07-24T17:34:27.535Z,2.37
2018-07-24T17:36:30.659Z,2.50
2018-07-24T17:38:33.787Z,2.23
2018-07-24T17:40:36.974Z,2.40
2018-07-24T17:42:40.044Z,2.43
2018-07-24T17:44:43.159Z,2.77
2018-07-24T17:46:46.303Z,2.60
2018-07-24T17:48:49.211Z,2.97
2018-07-24T17:50:52.369Z,2.53
2018-07-24T17:52:55.461Z,2.10
2018-07-24T17:54:58.371Z,2.73
2018-07-24T17:57:01.536Z,2.40
2018-07-24T17:59:04.473Z,2.40
2018-07-24T18:01:07.645Z,2.77
2018-07-24T18:03:10.716Z,2.53
2018-07-24T18:05:13.866Z,2.50
2018-07-24T18:07:16.985Z,3.10
2018-07-24T18:09:20.107Z,2.40
2018-07-24T18:11:23.267Z,2.37
2018-07-24T18:13:26.376Z,3.03
2018-07-24T18:15:29.337Z,2.60
2018-07-24T18:17:32.249Z,2.70
2018-07-24T18:19:35.126Z,2.40
2018-07-24T18:21:38.092Z,2.97
2018-07-24T18:23:40.974Z,2.40
2018-07-24T18:25:44.119Z,2.63
2018-07-24T18:27:47.257Z,2.67
2018-07-24T18:29:50.355Z,2.63
2018-07-24T18:31:53.310Z,2.60
2018-07-24T18:33:56.436Z,2.57
2018-07-24T18:35:59.396Z,2.40
2018-07-24T18:38:02.512Z,2.70
2018-07-24T18:40:05.694Z,3.07
2018-07-24T18:42:08.828Z,3.57
2018-07-24T18:44:11.950Z,2.97
2018-07-24T18:46:15.539Z,4.17
2018-07-24T18:48:18.495Z,3.67
2018-07-24T18:50:21.387Z,3.87
2018-07-24T18:52:24.283Z,2.90
2018-07-24T18:54:27.227Z,3.73
2018-07-24T18:56:30.351Z,3.83
2018-07-24T18:58:33.299Z,3.23
2018-07-24T19:00:36.411Z,3.87
2018-07-24T19:02:39.675Z,4.57
2018-07-24T19:04:42.797Z,5.00
2018-07-24T19:06:45.940Z,5.70
2018-07-24T19:08:49.052Z,5.63
2018-07-24T19:10:52.017Z,5.53
2018-07-24T19:12:55.167Z,5.00
2018-07-24T19:14:58.295Z,5.27
2018-07-24T19:17:01.428Z,5.07
2018-07-24T19:19:04.555Z,4.30
2018-07-24T19:21:07.898Z,4.37
2018-07-24T19:23:10.843Z,5.53
2018-07-24T19:25:13.989Z,4.60
2018-07-24T19:27:18.010Z,5.20
2018-07-24T19:29:21.148Z,4.37
2018-07-24T19:31:24.263Z,5.03
2018-07-24T19:33:27.684Z,5.20
2018-07-24T19:35:30.854Z,6.10
2018-07-24T19:37:34.020Z,5.90
2018-07-24T19:39:37.180Z,6.10
2018-07-24T19:41:40.341Z,5.33
2018-07-24T19:43:43.502Z,5.70
2018-07-24T19:45:46.632Z,5.30
2018-07-24T19:47:49.772Z,4.93
2018-07-24T19:49:52.973Z,6.10
2018-07-24T19:51:56.044Z,5.80
2018-07-24T19:53:59.448Z,7.13
2018-07-24T19:56:02.630Z,5.70
2018-07-24T19:58:05.903Z,6.00
2018-07-24T20:00:09.727Z,5.73
2018-07-24T20:02:12.843Z,6.23
2018-07-24T20:04:16.004Z,5.73
2018-07-24T20:06:19.145Z,5.90
2018-07-24T20:08:22.397Z,6.90
2018-07-24T20:10:25.594Z,6.27
2018-07-24T20:12:28.773Z,4.90
2018-07-24T20:14:32.077Z,6.13
2018-07-24T20:16:35.279Z,6.03
2018-07-24T20:18:39.313Z,7.43
2018-07-24T20:20:42.496Z,7.60
2018-07-24T20:22:46.955Z,7.13
2018-07-24T20:24:50.024Z,6.00
2018-07-24T20:26:53.177Z,5.60
2018-07-24T20:28:56.331Z,4.63
2018-07-24T20:30:59.492Z,5.60
2018-07-24T20:33:02.636Z,5.60
2018-07-24T20:35:06.818Z,5.57
2018-07-24T20:37:09.938Z,5.40
2018-07-24T20:39:13.592Z,4.50
2018-07-24T20:41:16.772Z,5.33
2018-07-24T20:43:19.958Z,4.93
2018-07-24T20:45:23.100Z,5.30
2018-07-24T20:47:26.267Z,6.70
2018-07-24T20:49:29.419Z,5.73
2018-07-24T20:51:32.560Z,5.77
2018-07-24T20:53:35.984Z,4.87
2018-07-24T20:55:39.144Z,6.13
2018-07-24T20:57:42.279Z,5.23
2018-07-24T20:59:45.437Z,5.93
2018-07-24T21:01:48.563Z,5.80
2018-07-24T21:03:51.727Z,6.10
2018-07-24T21:05:54.911Z,6.20
2018-07-24T21:07:58.012Z,5.93
2018-07-24T21:10:01.172Z,6.43
2018-07-24T21:12:04.315Z,5.93
2018-07-24T21:14:08.344Z,6.40
2018-07-24T21:16:11.481Z,5.40
2018-07-24T21:18:14.611Z,6.30
2018-07-24T21:20:17.748Z,6.70
2018-07-24T21:22:20.883Z,6.87
2018-07-24T21:24:24.041Z,6.87
2018-07-24T21:26:27.172Z,6.23
2018-07-24T21:28:30.315Z,6.63
2018-07-24T21:30:33.470Z,5.90
2018-07-24T21:32:36.628Z,6.20
2018-07-24T21:34:39.774Z,7.00
2018-07-24T21:36:43.049Z,6.37
2018-07-24T21:38:46.223Z,5.50
2018-07-24T21:40:49.384Z,6.47
2018-07-24T21:42:52.600Z,6.33
2018-07-24T21:44:55.711Z,6.97
2018-07-24T21:46:58.852Z,6.70
2018-07-24T21:49:02.122Z,6.90
2018-07-24T21:51:05.388Z,6.07
2018-07-24T21:53:08.791Z,6.70
2018-07-24T21:55:11.924Z,6.00
2018-07-24T21:57:15.060Z,6.47
2018-07-24T21:59:18.206Z,6.57
2018-07-24T22:01:24.004Z,7.47
2018-07-24T22:03:27.167Z,6.90
2018-07-24T22:05:30.578Z,6.63
2018-07-24T22:07:34.173Z,7.00
2018-07-24T22:09:37.456Z,6.90
2018-07-24T22:11:40.583Z,5.60
2018-07-24T22:13:43.689Z,8.10
2018-07-24T22:15:46.824Z,6.33
2018-07-24T22:17:50.133Z,5.60
2018-07-24T22:19:53.246Z,6.73
2018-07-24T22:21:56.368Z,6.30
2018-07-24T22:23:59.508Z,6.87
2018-07-24T22:26:02.628Z,6.27
2018-07-24T22:28:05.774Z,6.00
2018-07-24T22:30:09.427Z,5.93
2018-07-24T22:32:12.615Z,5.90
2018-07-24T22:34:15.749Z,7.20
2018-07-24T22:36:18.878Z,5.90
2018-07-24T22:38:22.191Z,6.23
2018-07-24T22:40:25.316Z,7.00
2018-07-24T22:42:28.569Z,5.70
2018-07-24T22:44:31.683Z,5.50
2018-07-24T22:46:36.109Z,5.23
2018-07-24T22:48:39.198Z,5.80
2018-07-24T22:50:43.300Z,5.47
2018-07-24T22:52:46.432Z,6.13
2018-07-24T22:54:49.539Z,6.23
2018-07-24T22:56:52.731Z,5.10
2018-07-24T22:58:55.783Z,5.00
2018-07-24T23:00:58.903Z,5.30
2018-07-24T23:03:01.815Z,5.33
2018-07-24T23:05:05.056Z,5.40
2018-07-24T23:07:08.207Z,4.80
2018-07-24T23:09:11.519Z,5.87
2018-07-24T23:11:14.663Z,5.20
2018-07-24T23:13:17.789Z,4.80
2018-07-24T23:15:21.047Z,5.03
2018-07-24T23:17:24.124Z,5.57
2018-07-24T23:19:27.371Z,5.83
2018-07-24T23:21:30.499Z,6.40
2018-07-24T23:23:33.615Z,5.30
2018-07-24T23:25:36.732Z,6.13
2018-07-24T23:27:39.863Z,5.60
2018-07-24T23:29:42.993Z,5.60
2018-07-24T23:31:46.132Z,4.93
2018-07-24T23:33:49.250Z,5.77
2018-07-24T23:35:52.387Z,5.53
2018-07-24T23:50:03.688Z,6.07
2018-07-24T23:52:06.979Z,5.70
2018-07-24T23:54:10.084Z,6.17
2018-07-24T23:56:13.179Z,6.00
2018-07-24T23:58:16.274Z,6.90
